Time;durP1;ratioP1;P1;durP2;ratioP2;P2;SDS_P1;SDS_P2;PMS_P1;PMS_P2;Temp;Humidity;BMP_temperature;BMP_pressure;BME280_temperature;BME280_humidity;BME280_pressure;Samples;Min_cycle;Max_cycle;Signal;HPM_P1;HPM_P2
2022/12/06 00:01:14;;;;;;;8.43;4.53;;;5.90;99.90;;;;;;5071293;28;20043;-62
2022/12/06 00:03:41;;;;;;;8.15;4.35;;;5.90;99.90;;;;;;5070181;28;20517;-62
2022/12/06 00:06:09;;;;;;;9.13;4.50;;;5.90;99.90;;;;;;5070994;28;20063;-62
2022/12/06 00:08:35;;;;;;;8.85;4.43;;;5.90;99.90;;;;;;5049899;28;20036;-62
2022/12/06 00:11:23;;;;;;;11.95;4.20;;;5.90;99.90;;;;;;5051607;28;20107;-62
2022/12/06 00:13:54;;;;;;;12.02;4.43;;;5.90;99.90;;;;;;5050217;28;20051;-63
2022/12/06 00:16:21;;;;;;;9.10;4.47;;;5.90;99.90;;;;;;5071187;28;20051;-62
2022/12/06 00:18:47;;;;;;;8.52;4.35;;;5.90;99.90;;;;;;5069943;28;20044;-62
2022/12/06 00:21:17;;;;;;;11.27;5.40;;;5.90;99.90;;;;;;5042697;28;20077;-63
2022/12/06 00:23:45;;;;;;;10.93;4.70;;;5.90;99.90;;;;;;5065689;28;20361;-62
2022/12/06 00:26:12;;;;;;;11.48;3.72;;;5.80;99.90;;;;;;5061114;28;20075;-63
2022/12/06 00:28:38;;;;;;;10.48;4.30;;;5.90;99.90;;;;;;5063325;28;20044;-63
2022/12/06 00:31:07;;;;;;;8.13;3.83;;;5.80;99.90;;;;;;5067528;28;20044;-63
2022/12/06 00:33:34;;;;;;;8.88;3.83;;;5.80;99.90;;;;;;5050852;28;20306;-63
2022/12/06 00:36:03;;;;;;;12.00;4.15;;;5.80;99.90;;;;;;5067697;28;20040;-63
2022/12/06 00:38:29;;;;;;;7.05;3.70;;;5.80;99.90;;;;;;5048863;28;20044;-63
2022/12/06 00:41:08;;;;;;;11.20;3.90;;;5.80;99.90;;;;;;5052184;28;20040;-62
2022/12/06 00:43:35;;;;;;;8.50;4.10;;;5.80;99.90;;;;;;5052766;28;20129;-63
2022/12/06 00:46:01;;;;;;;9.32;4.00;;;5.80;99.90;;;;;;5071386;28;20419;-63
2022/12/06 00:48:27;;;;;;;9.60;3.92;;;5.80;99.90;;;;;;5069244;28;20082;-62
2022/12/06 00:50:53;;;;;;;11.55;4.43;;;5.80;99.90;;;;;;5069611;28;20033;-63
2022/12/06 00:53:19;;;;;;;9.45;4.20;;;5.80;99.90;;;;;;5063576;28;20033;-63
2022/12/06 00:55:45;;;;;;;11.18;4.38;;;5.80;99.90;;;;;;5045919;28;20044;-63
2022/12/06 00:58:11;;;;;;;10.88;4.95;;;5.80;99.90;;;;;;5066535;28;20486;-63
2022/12/06 01:00:38;;;;;;;7.82;4.43;;;5.80;99.90;;;;;;5063158;28;20043;-63
2022/12/06 01:03:04;;;;;;;10.90;4.97;;;5.80;99.90;;;;;;5071134;28;20032;-63
2022/12/06 01:05:30;;;;;;;10.88;5.10;;;5.80;99.90;;;;;;5052005;28;20486;-63
2022/12/06 01:07:55;;;;;;;15.48;4.60;;;5.80;99.90;;;;;;5068518;28;20032;-63
2022/12/06 01:10:21;;;;;;;12.38;4.45;;;5.80;99.90;;;;;;5053145;28;20037;-62
2022/12/06 01:12:47;;;;;;;10.70;4.88;;;5.80;99.90;;;;;;5070719;28;20101;-63
2022/12/06 01:15:12;;;;;;;10.40;4.35;;;5.80;99.90;;;;;;5071607;28;20033;-63
2022/12/06 01:17:38;;;;;;;12.55;4.43;;;5.80;99.90;;;;;;5068602;28;20051;-63
2022/12/06 01:20:05;;;;;;;12.57;4.80;;;5.80;99.90;;;;;;5070408;28;20406;-63
2022/12/06 01:22:31;;;;;;;9.23;4.00;;;5.80;99.90;;;;;;5050998;28;20412;-63
2022/12/06 01:24:56;;;;;;;10.45;4.35;;;5.80;99.90;;;;;;5053166;28;20482;-63
2022/12/06 01:27:22;;;;;;;12.07;4.28;;;5.80;99.90;;;;;;5069742;28;20082;-63
2022/12/06 01:29:48;;;;;;;11.02;4.10;;;5.80;99.90;;;;;;5072612;28;20241;-62
2022/12/06 01:32:13;;;;;;;10.57;4.32;;;5.80;99.90;;;;;;5068915;28;20032;-63
2022/12/06 01:34:39;;;;;;;10.55;4.25;;;5.80;99.90;;;;;;5048906;28;20362;-63
2022/12/06 01:37:05;;;;;;;10.82;3.88;;;5.80;99.90;;;;;;5057800;28;20033;-63
2022/12/06 01:39:31;;;;;;;10.27;3.88;;;5.80;99.90;;;;;;5067671;28;20044;-63
2022/12/06 01:41:57;;;;;;;10.48;4.13;;;5.70;99.90;;;;;;5069496;28;20405;-63
2022/12/06 01:44:58;;;;;;;11.85;4.38;;;5.70;99.90;;;;;;5067684;28;20032;-63
2022/12/06 01:47:29;;;;;;;11.50;4.03;;;5.70;99.90;;;;;;4969712;28;20050;-63
2022/12/06 01:50:00;;;;;;;10.00;4.03;;;5.70;99.90;;;;;;5035085;28;20095;-63
2022/12/06 01:52:46;;;;;;;11.43;4.65;;;5.70;99.90;;;;;;5069101;28;20063;-63
2022/12/06 01:55:13;;;;;;;13.48;4.68;;;5.70;99.90;;;;;;5070867;28;20444;-63
2022/12/06 01:57:39;;;;;;;9.88;4.25;;;5.70;99.90;;;;;;5050891;28;20041;-63
2022/12/06 02:00:05;;;;;;;10.73;4.18;;;5.70;99.90;;;;;;5051146;28;20047;-63
2022/12/06 02:02:31;;;;;;;10.02;4.72;;;5.70;99.90;;;;;;5050399;28;20048;-63
2022/12/06 02:04:59;;;;;;;12.73;4.07;;;5.60;99.90;;;;;;5045691;28;20078;-63
2022/12/06 02:07:28;;;;;;;12.98;4.43;;;5.70;99.90;;;;;;5045666;28;20440;-62
2022/12/06 02:09:55;;;;;;;9.80;4.15;;;5.70;99.90;;;;;;5062089;28;20071;-62
2022/12/06 02:12:20;;;;;;;10.27;4.22;;;5.70;99.90;;;;;;5067265;28;20528;-62
2022/12/06 02:14:50;;;;;;;9.10;4.20;;;5.70;99.90;;;;;;5069015;28;20060;-62
2022/12/06 02:17:19;;;;;;;10.38;4.53;;;5.70;99.90;;;;;;5048734;28;20064;-62
2022/12/06 02:20:35;;;;;;;9.07;4.50;;;5.70;99.90;;;;;;5064589;28;20045;-62
2022/12/06 02:23:19;;;;;;;8.52;3.88;;;5.70;99.90;;;;;;5028164;28;20470;-62
2022/12/06 02:26:09;;;;;;;8.80;3.90;;;6.40;99.90;;;;;;5043454;28;20428;-62
2022/12/06 02:29:12;;;;;;;9.40;4.53;;;5.70;99.90;;;;;;5069258;28;20155;-62
2022/12/06 02:32:21;;;;;;;10.10;4.20;;;5.70;99.90;;;;;;5067627;28;20095;-62
2022/12/06 02:35:00;;;;;;;11.43;4.03;;;5.70;99.90;;;;;;5060382;28;20051;-62
2022/12/06 02:37:52;;;;;;;12.13;3.90;;;5.60;99.90;;;;;;5068420;28;20447;-62
2022/12/06 02:40:28;;;;;;;11.93;3.80;;;5.60;99.90;;;;;;5068182;28;20051;-64
2022/12/06 02:42:59;;;;;;;9.43;3.78;;;5.60;99.90;;;;;;5068070;28;20058;-62
2022/12/06 02:45:28;;;;;;;8.75;3.97;;;5.60;99.90;;;;;;5050028;28;20045;-62
2022/12/06 02:47:56;;;;;;;10.75;3.80;;;5.60;99.90;;;;;;5042042;28;20055;-62
2022/12/06 02:50:30;;;;;;;9.35;3.90;;;5.60;99.90;;;;;;5057769;28;20059;-62
2022/12/06 02:52:59;;;;;;;12.82;3.83;;;5.60;99.90;;;;;;5061704;28;20802;-62
2022/12/06 02:55:26;;;;;;;8.15;3.47;;;5.60;99.90;;;;;;5066646;28;20036;-62
2022/12/06 02:57:53;;;;;;;8.15;3.47;;;5.60;99.90;;;;;;5067436;28;20072;-62
2022/12/06 03:00:30;;;;;;;6.95;3.75;;;5.60;99.90;;;;;;5057033;28;20040;-62
2022/12/06 03:03:29;;;;;;;6.97;3.65;;;5.60;99.90;;;;;;5051195;28;20086;-62
2022/12/06 03:06:01;;;;;;;7.93;3.88;;;5.60;99.90;;;;;;5065173;28;20048;-62
2022/12/06 03:09:02;;;;;;;10.25;3.40;;;5.60;99.90;;;;;;5044681;28;20445;-62
2022/12/06 03:11:45;;;;;;;9.13;4.00;;;5.60;99.90;;;;;;5044273;28;20059;-62
2022/12/06 03:14:17;;;;;;;7.18;3.60;;;5.50;99.90;;;;;;5069806;28;20072;-62
2022/12/06 03:17:12;;;;;;;8.25;4.05;;;5.50;99.90;;;;;;5070177;28;20044;-62
2022/12/06 03:19:39;;;;;;;10.63;3.95;;;5.50;99.90;;;;;;5027965;28;20048;-62
2022/12/06 03:22:22;;;;;;;8.60;3.90;;;5.50;99.90;;;;;;5054219;28;20131;-62
2022/12/06 03:24:48;;;;;;;11.32;4.32;;;5.50;99.90;;;;;;5064431;28;20327;-62
2022/12/06 03:27:18;;;;;;;10.45;4.43;;;5.50;99.90;;;;;;5066222;28;20040;-62
2022/12/06 03:29:49;;;;;;;11.25;4.53;;;5.50;99.90;;;;;;5068240;28;20135;-62
2022/12/06 03:32:19;;;;;;;11.32;4.45;;;5.50;99.90;;;;;;5050904;28;20079;-62
2022/12/06 03:34:48;;;;;;;10.80;3.72;;;5.50;99.90;;;;;;5068317;28;20082;-62
2022/12/06 03:37:19;;;;;;;9.68;3.58;;;5.50;99.90;;;;;;5050893;28;20110;-62
2022/12/06 03:40:10;;;;;;;8.73;3.97;;;5.50;99.90;;;;;;5064178;28;20032;-62
2022/12/06 03:42:36;;;;;;;11.40;4.57;;;5.50;99.90;;;;;;5051641;28;20646;-62
2022/12/06 03:45:03;;;;;;;10.63;4.47;;;5.50;99.90;;;;;;5050221;28;20533;-62
2022/12/06 03:47:53;;;;;;;11.52;3.90;;;5.50;99.90;;;;;;5053050;28;20526;-62
2022/12/06 03:50:32;;;;;;;9.40;3.90;;;5.50;99.90;;;;;;5051394;28;20062;-62
2022/12/06 03:53:00;;;;;;;10.48;3.83;;;5.50;99.90;;;;;;5069359;28;20047;-62
2022/12/06 03:55:26;;;;;;;10.15;3.75;;;5.50;99.90;;;;;;5071915;28;20030;-62
2022/12/06 03:57:51;;;;;;;8.35;3.67;;;5.50;99.90;;;;;;5071552;28;20028;-62
2022/12/06 04:00:18;;;;;;;8.35;3.65;;;5.50;99.90;;;;;;5068809;28;20048;-62
2022/12/06 04:02:43;;;;;;;9.68;3.55;;;5.50;99.90;;;;;;5071796;28;20509;-62
2022/12/06 04:05:09;;;;;;;8.95;3.67;;;5.50;99.90;;;;;;5053492;28;20044;-62
2022/12/06 04:07:35;;;;;;;11.07;3.75;;;5.50;99.90;;;;;;5065753;28;20502;-62
2022/12/06 04:10:03;;;;;;;8.02;3.10;;;5.40;99.90;;;;;;5049032;28;20041;-62
2022/12/06 04:15:17;;;;;;;9.85;3.60;;;5.40;99.90;;;;;;5070477;28;20120;-62
2022/12/06 04:20:28;;;;;;;7.13;3.40;;;5.40;99.90;;;;;;5047743;28;20442;-62
2022/12/06 04:23:03;;;;;;;6.45;3.45;;;5.40;99.90;;;;;;5059276;28;20033;-62
2022/12/06 04:25:34;;;;;;;7.82;3.05;;;5.30;99.90;;;;;;5046849;28;20048;-62
2022/12/06 04:38:58;;;;;;;6.07;2.97;;;5.30;99.90;;;;;;5046369;28;20395;-66
2022/12/06 04:44:08;;;;;;;8.18;3.45;;;5.30;99.90;;;;;;5065417;28;20044;-62
2022/12/06 04:46:34;;;;;;;5.00;2.70;;;5.30;99.90;;;;;;5053824;28;20043;-62
2022/12/06 04:48:59;;;;;;;6.70;2.78;;;5.30;99.90;;;;;;5068112;28;20032;-62
2022/12/06 04:51:25;;;;;;;5.63;3.00;;;5.30;99.90;;;;;;5053436;28;20071;-62
2022/12/06 04:53:51;;;;;;;7.20;2.67;;;5.30;99.90;;;;;;5053527;28;20040;-62
2022/12/06 04:56:16;;;;;;;7.65;3.03;;;5.20;99.90;;;;;;5071803;28;20036;-62
2022/12/06 04:58:42;;;;;;;4.93;2.70;;;5.20;99.90;;;;;;5035689;28;20093;-62
2022/12/06 05:01:08;;;;;;;6.55;2.85;;;5.20;99.90;;;;;;5046918;28;20048;-62
2022/12/06 05:03:34;;;;;;;5.18;2.83;;;5.20;99.90;;;;;;5069720;28;20043;-62
2022/12/06 05:06:00;;;;;;;6.07;2.85;;;5.10;99.90;;;;;;5053165;28;20048;-62
2022/12/06 05:08:26;;;;;;;7.30;2.75;;;5.10;99.90;;;;;;5060012;28;20041;-62
2022/12/06 05:10:52;;;;;;;9.43;3.13;;;5.10;99.90;;;;;;5053532;28;20044;-62
2022/12/06 05:13:18;;;;;;;7.82;2.97;;;5.10;99.90;;;;;;5059541;28;20502;-62
2022/12/06 05:16:00;;;;;;;5.97;2.75;;;5.10;99.90;;;;;;5051186;28;20040;-62
2022/12/06 05:18:27;;;;;;;7.60;2.70;;;5.00;99.90;;;;;;5050415;28;20032;-62
2022/12/06 05:21:04;;;;;;;6.70;2.72;;;5.10;99.90;;;;;;5050564;28;20048;-62
2022/12/06 05:23:31;;;;;;;4.72;2.47;;;5.00;99.90;;;;;;5051764;28;20076;-62
2022/12/06 05:25:59;;;;;;;5.53;2.83;;;5.00;99.90;;;;;;5067774;28;20105;-62
2022/12/06 05:28:24;;;;;;;6.75;2.75;;;5.00;99.90;;;;;;5060286;28;20402;-62
2022/12/06 05:30:50;;;;;;;6.35;2.63;;;5.00;99.90;;;;;;5067422;28;20036;-62
2022/12/06 05:33:15;;;;;;;6.88;2.70;;;5.00;99.90;;;;;;5066579;28;20028;-62
2022/12/06 05:35:41;;;;;;;6.97;3.10;;;5.00;99.90;;;;;;5058718;28;20044;-62
2022/12/06 05:38:07;;;;;;;6.75;2.92;;;5.00;99.90;;;;;;5055570;28;20112;-62
2022/12/06 05:40:32;;;;;;;4.93;2.70;;;5.00;99.90;;;;;;5061355;28;20036;-62
2022/12/06 05:42:58;;;;;;;7.10;2.55;;;4.90;99.90;;;;;;5045098;28;20128;-62
2022/12/06 05:45:23;;;;;;;5.93;2.40;;;4.90;99.90;;;;;;5063943;28;20247;-63
2022/12/06 05:47:49;;;;;;;6.18;2.90;;;4.90;99.90;;;;;;5067180;28;20051;-62
2022/12/06 05:50:14;;;;;;;6.47;2.70;;;4.90;99.90;;;;;;5046803;28;20041;-63
2022/12/06 05:52:40;;;;;;;9.10;3.10;;;4.90;99.90;;;;;;5066357;28;20107;-63
2022/12/06 05:55:06;;;;;;;5.82;2.92;;;4.90;99.90;;;;;;5063197;28;20108;-63
2022/12/06 05:57:32;;;;;;;9.10;3.50;;;4.90;99.90;;;;;;5058376;28;20033;-62
2022/12/06 05:59:57;;;;;;;7.97;2.90;;;5.00;99.90;;;;;;5045452;28;20040;-62
2022/12/06 06:02:23;;;;;;;6.50;2.72;;;5.00;99.90;;;;;;5049148;28;20475;-62
2022/12/06 06:04:49;;;;;;;5.38;3.00;;;4.90;99.90;;;;;;5071060;28;20078;-62
2022/12/06 06:07:14;;;;;;;6.30;2.90;;;4.90;99.90;;;;;;5069765;28;20036;-62
2022/12/06 06:09:40;;;;;;;4.60;2.72;;;4.90;99.90;;;;;;5067961;28;20029;-62
2022/12/06 06:12:06;;;;;;;5.82;2.42;;;4.90;99.90;;;;;;5052165;28;20538;-62
2022/12/06 06:14:31;;;;;;;6.63;2.90;;;4.90;99.90;;;;;;5051229;28;20033;-62
2022/12/06 06:16:57;;;;;;;8.80;3.20;;;4.90;99.90;;;;;;5063214;28;20449;-62
2022/12/06 06:19:23;;;;;;;5.25;2.67;;;4.80;99.90;;;;;;5047758;28;20033;-63
2022/12/06 06:21:49;;;;;;;5.00;2.88;;;4.80;99.90;;;;;;5044702;28;20040;-63
2022/12/06 06:24:15;;;;;;;5.43;2.75;;;4.80;99.90;;;;;;5044169;28;20041;-63
2022/12/06 06:26:40;;;;;;;6.28;2.67;;;4.80;99.90;;;;;;5060347;28;20560;-63
2022/12/06 06:29:06;;;;;;;7.88;3.17;;;4.80;99.90;;;;;;5062903;28;20071;-63
2022/12/06 06:31:32;;;;;;;9.60;3.40;;;5.00;99.90;;;;;;5049220;28;21204;-62
2022/12/06 06:33:57;;;;;;;6.70;3.10;;;4.80;99.90;;;;;;5050516;28;20132;-63
2022/12/06 06:36:23;;;;;;;6.07;3.13;;;4.80;99.90;;;;;;5067936;28;20060;-63
2022/12/06 06:38:48;;;;;;;6.25;3.10;;;4.80;99.90;;;;;;5043988;28;20098;-63
2022/12/06 06:41:14;;;;;;;7.00;2.80;;;4.80;99.90;;;;;;5063089;28;20115;-63
2022/12/06 06:43:40;;;;;;;7.65;2.88;;;4.80;99.90;;;;;;5068814;28;20494;-63
2022/12/06 06:46:06;;;;;;;5.95;2.78;;;4.70;99.90;;;;;;5069636;28;20054;-63
2022/12/06 06:48:37;;;;;;;7.40;2.92;;;4.70;99.90;;;;;;5068411;28;20033;-64
2022/12/06 06:51:05;;;;;;;5.80;2.67;;;4.50;99.90;;;;;;5049137;28;20056;-63
2022/12/06 06:53:31;;;;;;;5.80;2.80;;;4.70;99.90;;;;;;5053219;28;20116;-62
2022/12/06 06:55:57;;;;;;;7.40;2.90;;;4.60;99.90;;;;;;5073806;28;20516;-62
2022/12/06 06:58:23;;;;;;;4.20;2.78;;;4.60;99.90;;;;;;5071795;28;20044;-63
2022/12/06 07:00:52;;;;;;;7.03;2.72;;;4.50;99.90;;;;;;5065585;28;20045;-62
2022/12/06 07:03:19;;;;;;;6.50;2.78;;;4.50;99.90;;;;;;5053717;28;20044;-64
2022/12/06 07:05:53;;;;;;;5.63;2.40;;;4.40;99.90;;;;;;5073408;28;20040;-63
2022/12/06 07:08:19;;;;;;;5.70;2.63;;;4.40;99.90;;;;;;5067767;28;20131;-63
2022/12/06 07:10:47;;;;;;;7.45;2.88;;;4.40;99.90;;;;;;5066805;28;20120;-63
2022/12/06 07:13:17;;;;;;;6.10;2.78;;;4.40;99.90;;;;;;5055326;28;20045;-63
2022/12/06 07:15:43;;;;;;;9.20;3.05;;;4.30;99.90;;;;;;5054053;28;20036;-63
2022/12/06 07:18:09;;;;;;;5.28;2.85;;;4.30;99.90;;;;;;5072917;28;20457;-63
2022/12/06 07:20:35;;;;;;;6.45;2.90;;;4.30;99.90;;;;;;5073176;28;20045;-63
2022/12/06 07:23:00;;;;;;;7.30;2.70;;;4.30;99.90;;;;;;5065410;28;20040;-62
2022/12/06 07:25:26;;;;;;;4.45;2.47;;;4.30;99.90;;;;;;5067341;28;20071;-62
2022/12/06 07:27:52;;;;;;;6.70;2.72;;;4.20;99.90;;;;;;5073258;28;20063;-62
2022/12/06 07:30:18;;;;;;;4.65;2.72;;;4.20;99.90;;;;;;5052290;28;20040;-62
2022/12/06 07:32:43;;;;;;;5.57;2.85;;;4.10;99.90;;;;;;5072818;28;20028;-63
2022/12/06 07:35:09;;;;;;;5.93;2.83;;;4.00;99.90;;;;;;5071041;28;20478;-62
2022/12/06 07:37:35;;;;;;;5.68;3.00;;;4.00;99.90;;;;;;5072960;28;20043;-63
2022/12/06 07:40:00;;;;;;;4.80;2.70;;;3.90;99.90;;;;;;5054753;28;20037;-62
2022/12/06 07:45:13;;;;;;;6.25;2.80;;;3.90;99.90;;;;;;5047776;28;20080;-62
2022/12/06 07:47:42;;;;;;;5.10;3.17;;;3.80;99.90;;;;;;5065418;28;20076;-62
2022/12/06 07:50:13;;;;;;;7.13;3.10;;;3.80;99.90;;;;;;5072437;28;20049;-62
2022/12/06 07:52:39;;;;;;;5.00;3.10;;;3.70;99.90;;;;;;5028551;28;20040;-63
2022/12/06 07:55:06;;;;;;;5.72;3.00;;;3.70;99.90;;;;;;5051432;28;20067;-63
2022/12/06 07:57:32;;;;;;;5.25;2.55;;;3.60;99.90;;;;;;5046513;28;20040;-62
2022/12/06 07:59:58;;;;;;;5.32;2.80;;;3.60;99.90;;;;;;5047649;28;20048;-62
2022/12/06 08:02:26;;;;;;;5.00;2.88;;;3.50;99.90;;;;;;5072168;28;20375;-62
2022/12/06 08:04:53;;;;;;;5.68;2.70;;;3.50;99.90;;;;;;5055129;28;20032;-63
2022/12/06 08:07:19;;;;;;;4.47;2.40;;;3.50;99.90;;;;;;5047363;28;20060;-62
2022/12/06 08:09:45;;;;;;;3.42;2.08;;;3.50;99.90;;;;;;5051098;28;20041;-62
2022/12/06 08:12:11;;;;;;;4.95;1.60;;;3.50;99.90;;;;;;5064418;28;20088;-62
2022/12/06 08:14:37;;;;;;;1.80;1.40;;;3.50;99.90;;;;;;5068738;28;20394;-62
2022/12/06 08:17:04;;;;;;;2.33;1.40;;;3.50;99.90;;;;;;5072560;28;20036;-62
2022/12/06 08:19:30;;;;;;;1.83;1.27;;;3.40;99.90;;;;;;5069456;28;20044;-63
2022/12/06 08:21:55;;;;;;;3.15;1.50;;;3.40;99.90;;;;;;5072273;28;20434;-62
2022/12/06 08:24:21;;;;;;;3.25;1.60;;;3.40;99.90;;;;;;5071974;28;20044;-62
2022/12/06 08:26:48;;;;;;;3.33;1.85;;;3.30;99.90;;;;;;5037028;28;20118;-63
2022/12/06 08:29:14;;;;;;;2.72;1.60;;;3.30;99.90;;;;;;5069237;28;20072;-62
2022/12/06 08:31:40;;;;;;;2.55;1.55;;;3.30;99.90;;;;;;5072248;28;20068;-63
2022/12/06 08:34:06;;;;;;;5.80;1.58;;;3.30;99.90;;;;;;5061699;28;20112;-63
2022/12/06 08:36:32;;;;;;;2.17;1.42;;;3.30;99.90;;;;;;5053536;28;20103;-62
2022/12/06 08:38:59;;;;;;;3.17;1.65;;;3.30;99.90;;;;;;5067679;28;20395;-62
2022/12/06 08:41:58;;;;;;;3.55;1.77;;;3.30;99.90;;;;;;5070148;28;20048;-62
2022/12/06 08:44:18;;;;;;;4.22;2.15;;;3.40;99.90;;;;;;5049154;28;20222;-62
2022/12/06 08:46:44;;;;;;;3.67;2.13;;;3.40;99.90;;;;;;5054478;28;20123;-63
2022/12/06 08:49:11;;;;;;;5.63;2.30;;;3.50;99.90;;;;;;5069039;28;20437;-62
2022/12/06 08:51:37;;;;;;;5.38;2.50;;;3.50;99.90;;;;;;5071666;28;20029;-62
2022/12/06 08:54:05;;;;;;;5.30;2.97;;;3.60;99.90;;;;;;5071307;28;20048;-63
2022/12/06 08:56:31;;;;;;;5.65;3.08;;;3.60;99.90;;;;;;5051837;28;20119;-63
2022/12/06 08:58:56;;;;;;;6.00;3.47;;;3.60;99.90;;;;;;5050035;28;20113;-63
2022/12/06 09:01:27;;;;;;;5.88;3.13;;;3.70;99.90;;;;;;5069466;28;20051;-62
2022/12/06 09:03:53;;;;;;;7.38;3.63;;;3.70;99.90;;;;;;5053274;28;20304;-62
2022/12/06 09:06:20;;;;;;;7.78;3.78;;;3.70;99.90;;;;;;5071075;28;20087;-63
2022/12/06 09:08:47;;;;;;;6.05;3.58;;;3.70;99.90;;;;;;5070810;28;20036;-63
2022/12/06 09:11:14;;;;;;;7.40;3.30;;;3.70;99.90;;;;;;5046157;28;20044;-63
2022/12/06 09:13:40;;;;;;;7.05;3.13;;;3.80;99.90;;;;;;5053529;28;20044;-62
2022/12/06 09:16:11;;;;;;;6.43;3.47;;;3.80;99.90;;;;;;5071051;28;20033;-63
2022/12/06 09:18:37;;;;;;;6.13;3.13;;;3.90;99.90;;;;;;5070777;28;20071;-62
2022/12/06 09:21:08;;;;;;;5.93;3.33;;;4.00;99.90;;;;;;5048144;28;20499;-62
2022/12/06 09:23:35;;;;;;;8.35;3.20;;;4.00;99.90;;;;;;5068694;28;20052;-63
2022/12/06 09:26:01;;;;;;;7.15;3.42;;;4.20;99.90;;;;;;5049264;28;20045;-62
2022/12/06 09:28:28;;;;;;;6.93;3.58;;;4.20;99.90;;;;;;5051810;28;20045;-62
2022/12/06 09:30:54;;;;;;;6.93;3.60;;;4.30;99.90;;;;;;5049646;28;20036;-63
2022/12/06 09:33:21;;;;;;;9.43;3.55;;;4.40;99.90;;;;;;5070064;28;20040;-62
2022/12/06 09:35:49;;;;;;;7.53;3.28;;;4.50;99.90;;;;;;5071195;28;20032;-62
2022/12/06 09:38:15;;;;;;;6.30;3.35;;;4.50;99.90;;;;;;5070748;28;20033;-63
2022/12/06 09:41:07;;;;;;;5.32;3.03;;;4.60;99.90;;;;;;5068928;28;20127;-63
2022/12/06 09:43:41;;;;;;;8.27;2.95;;;4.60;99.90;;;;;;5052223;28;20072;-63
2022/12/06 09:46:38;;;;;;;7.95;2.90;;;4.60;99.90;;;;;;5052619;28;20048;-63
2022/12/06 09:49:17;;;;;;;7.30;3.20;;;4.70;99.90;;;;;;5066023;28;20092;-63
2022/12/06 09:52:22;;;;;;;7.55;3.70;;;4.70;99.90;;;;;;5045058;28;20151;-63
2022/12/06 09:55:06;;;;;;;8.07;3.30;;;4.70;99.90;;;;;;5044638;28;20384;-63
2022/12/06 09:57:35;;;;;;;6.75;3.08;;;4.80;99.90;;;;;;5051454;28;20977;-63
2022/12/06 10:00:04;;;;;;;6.38;3.30;;;4.80;99.90;;;;;;5070363;28;20102;-63
2022/12/06 10:02:51;;;;;;;6.32;3.13;;;4.90;99.90;;;;;;5051623;28;20044;-63
2022/12/06 10:05:46;;;;;;;8.30;2.70;;;4.90;99.90;;;;;;5070368;28;20097;-63
2022/12/06 10:08:42;;;;;;;7.65;2.80;;;5.00;99.90;;;;;;5032265;28;20045;-63
2022/12/06 10:11:29;;;;;;;4.22;2.40;;;5.10;99.90;;;;;;5068499;28;20048;-63
2022/12/06 10:14:04;;;;;;;6.57;2.85;;;5.10;99.90;;;;;;5045996;28;20033;-63
2022/12/06 10:17:14;;;;;;;5.65;2.50;;;5.10;99.90;;;;;;5051942;28;20040;-63
2022/12/06 10:20:09;;;;;;;7.65;2.70;;;5.20;99.90;;;;;;4968364;28;20138;-63
2022/12/06 10:22:48;;;;;;;6.28;2.50;;;5.20;99.90;;;;;;5055569;28;20063;-63
2022/12/06 10:25:23;;;;;;;5.53;2.80;;;5.20;99.90;;;;;;5045111;28;20068;-63
2022/12/06 10:28:17;;;;;;;6.18;2.45;;;5.20;99.90;;;;;;5070050;28;20293;-63
2022/12/06 10:30:50;;;;;;;6.72;2.35;;;5.30;99.90;;;;;;5061920;28;20411;-63
2022/12/06 10:33:28;;;;;;;5.90;2.33;;;5.30;99.90;;;;;;5045803;28;20134;-63
2022/12/06 10:36:19;;;;;;;5.35;2.28;;;5.30;99.90;;;;;;5049197;28;20498;-62
2022/12/06 10:38:52;;;;;;;5.25;2.40;;;5.30;99.90;;;;;;5064928;28;20506;-63
2022/12/06 10:41:29;;;;;;;8.13;2.17;;;5.30;99.90;;;;;;5070748;28;20123;-63
2022/12/06 10:44:20;;;;;;;7.10;2.53;;;5.20;99.90;;;;;;5051622;28;20040;-63
2022/12/06 10:47:13;;;;;;;9.45;2.33;;;5.30;99.90;;;;;;5063986;28;20171;-63
2022/12/06 10:49:50;;;;;;;7.65;2.88;;;5.30;99.90;;;;;;5044549;28;20391;-63
2022/12/06 10:52:32;;;;;;;7.22;2.35;;;5.30;99.90;;;;;;5050046;28;20495;-64
2022/12/06 10:55:12;;;;;;;7.20;2.40;;;5.30;99.90;;;;;;5046430;28;20036;-63
2022/12/06 10:57:40;;;;;;;10.20;2.40;;;5.40;99.90;;;;;;5069466;28;20086;-63
2022/12/06 11:00:14;;;;;;;7.68;2.20;;;5.40;99.90;;;;;;5051788;28;20049;-63
2022/12/06 11:03:05;;;;;;;7.00;2.50;;;5.30;99.90;;;;;;5069172;28;20556;-63
2022/12/06 11:05:35;;;;;;;5.35;2.22;;;5.30;99.90;;;;;;5069785;28;20032;-63
2022/12/06 11:08:09;;;;;;;8.23;2.65;;;5.40;99.90;;;;;;5046880;28;20044;-63
2022/12/06 11:10:38;;;;;;;11.00;3.28;;;5.40;99.90;;;;;;5051052;28;20094;-63
2022/12/06 11:13:19;;;;;;;5.93;2.63;;;5.40;99.90;;;;;;5068024;28;20040;-63
2022/12/06 11:16:08;;;;;;;9.38;2.40;;;5.40;99.90;;;;;;5059101;28;20040;-63
2022/12/06 11:18:34;;;;;;;5.88;2.70;;;5.40;99.90;;;;;;5069167;28;20040;-63
2022/12/06 11:21:12;;;;;;;5.30;2.35;;;5.40;99.90;;;;;;5051343;28;20041;-63
2022/12/06 11:23:47;;;;;;;6.53;2.45;;;5.40;99.90;;;;;;5062841;28;20402;-63
2022/12/06 11:26:33;;;;;;;5.30;2.53;;;5.50;99.90;;;;;;5051218;28;20037;-63
2022/12/06 11:29:08;;;;;;;6.75;2.70;;;5.50;99.90;;;;;;5067477;28;20029;-63
2022/12/06 11:31:53;;;;;;;6.45;2.40;;;5.60;99.90;;;;;;5068248;28;20044;-63
2022/12/06 11:34:42;;;;;;;3.92;2.33;;;5.80;99.90;;;;;;5068578;28;20066;-62
2022/12/06 11:37:18;;;;;;;4.32;2.50;;;5.90;99.90;;;;;;5070129;28;20518;-62
2022/12/06 11:39:44;;;;;;;8.63;2.40;;;6.10;99.90;;;;;;5069463;28;20458;-63
2022/12/06 11:42:13;;;;;;;4.75;2.20;;;6.10;99.90;;;;;;5070042;28;20506;-63
2022/12/06 11:44:52;;;;;;;6.68;2.00;;;6.20;99.90;;;;;;5049861;28;20095;-62
2022/12/06 11:47:20;;;;;;;5.82;2.00;;;6.30;99.90;;;;;;5054623;28;20115;-62
2022/12/06 11:49:48;;;;;;;6.13;2.60;;;6.10;99.90;;;;;;5054409;28;20390;-62
2022/12/06 11:52:33;;;;;;;6.78;2.10;;;6.10;99.90;;;;;;5068955;28;20046;-62
2022/12/06 11:55:18;;;;;;;5.03;2.38;;;6.20;99.90;;;;;;5067418;28;20395;-62
2022/12/06 11:58:12;;;;;;;8.32;2.20;;;6.10;99.90;;;;;;5067774;28;20024;-62
2022/12/06 12:01:14;;;;;;;5.28;2.22;;;6.20;99.90;;;;;;5049199;28;20059;-62
2022/12/06 12:03:42;;;;;;;4.32;2.30;;;6.10;99.90;;;;;;5071029;28;20121;-62
2022/12/06 12:06:25;;;;;;;4.25;2.20;;;6.20;99.90;;;;;;5071955;28;20046;-62
2022/12/06 12:09:03;;;;;;;5.50;2.38;;;6.20;99.90;;;;;;5048663;28;20033;-62
2022/12/06 12:11:36;;;;;;;6.18;2.22;;;6.20;99.90;;;;;;5072509;28;20453;-62
2022/12/06 12:14:06;;;;;;;6.75;2.50;;;6.20;99.90;;;;;;5070933;28;20048;-62
2022/12/06 12:16:41;;;;;;;6.88;2.13;;;6.30;99.90;;;;;;5053582;28;20379;-62
2022/12/06 12:19:25;;;;;;;4.75;2.30;;;6.20;99.90;;;;;;5067411;28;20047;-62
2022/12/06 12:21:53;;;;;;;7.28;2.08;;;6.30;99.90;;;;;;5070962;28;20036;-62
2022/12/06 12:24:40;;;;;;;4.35;1.95;;;6.30;99.90;;;;;;5072059;28;20044;-62
2022/12/06 12:27:31;;;;;;;8.93;2.47;;;6.30;99.90;;;;;;5054383;28;20079;-62
2022/12/06 12:30:22;;;;;;;9.25;2.58;;;6.30;99.90;;;;;;5070618;28;20296;-62
2022/12/06 12:33:04;;;;;;;7.65;2.30;;;6.30;99.90;;;;;;5046697;28;20049;-62
2022/12/06 12:35:30;;;;;;;6.95;2.15;;;6.30;99.90;;;;;;5052180;28;20542;-62
2022/12/06 12:38:02;;;;;;;6.97;2.40;;;6.30;99.90;;;;;;5052148;28;20033;-62
2022/12/06 12:40:41;;;;;;;6.87;2.20;;;6.30;99.90;;;;;;5071071;28;20048;-62
2022/12/06 12:43:09;;;;;;;9.65;2.40;;;6.40;99.90;;;;;;5071609;28;20336;-62
2022/12/06 12:45:38;;;;;;;3.92;2.17;;;6.40;99.90;;;;;;5046177;28;20059;-62
2022/12/06 12:48:21;;;;;;;7.07;2.33;;;6.40;99.90;;;;;;5069582;28;20032;-62
2022/12/06 12:50:54;;;;;;;;;;;6.50;99.90;;;;;;5046674;28;20399;-62
2022/12/06 12:53:31;;;;;;;8.90;2.42;;;6.60;99.90;;;;;;5068364;28;19951;-62
2022/12/06 12:56:09;;;;;;;6.53;2.03;;;6.60;99.90;;;;;;5071451;28;20037;-62
2022/12/06 12:58:34;;;;;;;4.75;1.80;;;6.80;99.90;;;;;;5053055;28;20041;-62
2022/12/06 13:01:11;;;;;;;5.88;2.08;;;7.20;99.90;;;;;;5048430;28;20044;-62
2022/12/06 13:03:37;;;;;;;3.17;1.58;;;7.30;99.90;;;;;;5065323;28;20044;-62
2022/12/06 13:06:03;;;;;;;5.38;1.98;;;7.20;99.90;;;;;;5053408;28;20414;-62
2022/12/06 13:08:34;;;;;;;6.32;1.90;;;7.10;99.90;;;;;;5050927;28;20490;-62
2022/12/06 13:11:04;;;;;;;8.25;2.10;;;7.10;99.90;;;;;;5067521;28;20037;-62
2022/12/06 13:13:38;;;;;;;3.72;1.90;;;7.10;99.90;;;;;;5069460;28;20911;-62
2022/12/06 13:16:11;;;;;;;4.78;2.45;;;7.20;99.90;;;;;;5050419;28;20045;-62
2022/12/06 13:18:38;;;;;;;;;;;7.20;99.90;;;;;;5070604;28;20036;-62
2022/12/06 13:21:31;;;;;;;5.15;1.75;;;7.10;99.90;;;;;;5066257;28;20366;-62
2022/12/06 13:24:09;;;;;;;3.97;1.90;;;6.90;99.90;;;;;;5045494;28;20049;-62
2022/12/06 13:26:43;;;;;;;4.57;1.98;;;6.80;99.90;;;;;;5065740;28;20032;-62
2022/12/06 13:29:28;;;;;;;3.90;1.90;;;6.80;99.90;;;;;;5050756;28;20056;-62
2022/12/06 13:31:56;;;;;;;8.23;2.00;;;6.70;99.90;;;;;;5067908;28;20136;-62
2022/12/06 13:34:42;;;;;;;3.08;1.70;;;6.60;99.90;;;;;;5071209;28;20075;-62
2022/12/06 13:37:42;;;;;;;5.35;2.15;;;6.70;99.90;;;;;;5070806;28;20410;-62
2022/12/06 13:40:26;;;;;;;4.47;2.20;;;6.60;99.90;;;;;;5066116;28;20048;-62
2022/12/06 13:42:52;;;;;;;3.92;1.95;;;6.60;99.90;;;;;;5039314;28;20502;-62